Time;durP1;ratioP1;P1;durP2;ratioP2;P2;SDS_P1;SDS_P2;PMS_P1;PMS_P2;Temp;Humidity;BMP_temperature;BMP_pressure;BME280_temperature;BME280_humidity;BME280_pressure;Samples;Min_cycle;Max_cycle;Signal;HPM_P1;HPM_P2
2020/12/13 00:02:08;;;;;;;49.33;19.17;;;;;;;;;;8146239;28;20072;-73
2020/12/13 00:06:12;;;;;;;76.20;21.57;;;;;;;;;;8163908;28;20375;-73
2020/12/13 00:10:15;;;;;;;66.60;21.13;;;;;;;;;;8165350;28;20092;-73
2020/12/13 00:14:18;;;;;;;279.08;53.83;;;;;;;;;;8179107;28;20380;-73
2020/12/13 00:18:21;;;;;;;68.53;22.05;;;;;;;;;;8164739;28;20050;-73
2020/12/13 00:22:25;;;;;;;63.42;18.98;;;;;;;;;;8164860;28;20050;-73
2020/12/13 00:26:29;;;;;;;71.95;22.00;;;;;;;;;;8163094;28;20384;-73
2020/12/13 00:30:32;;;;;;;27.20;12.95;;;;;;;;;;8163962;28;20420;-73
2020/12/13 00:34:35;;;;;;;41.63;15.98;;;;;;;;;;8161366;28;20042;-73
2020/12/13 00:38:38;;;;;;;62.53;22.88;;;;;;;;;;8162948;28;20415;-73
2020/12/13 00:42:41;;;;;;;47.38;17.70;;;;;;;;;;8161837;28;20506;-73
2020/12/13 00:46:45;;;;;;;30.67;13.15;;;;;;;;;;8178058;28;20476;-73
2020/12/13 00:50:48;;;;;;;32.45;12.80;;;;;;;;;;8163774;28;20084;-73
2020/12/13 00:54:51;;;;;;;29.98;12.40;;;;;;;;;;8162517;28;20464;-73
2020/12/13 00:58:55;;;;;;;37.75;15.13;;;;;;;;;;8177338;28;20050;-73
2020/12/13 01:03:00;;;;;;;30.48;11.98;;;;;;;;;;8157587;28;20076;-73
2020/12/13 01:07:06;;;;;;;39.17;15.70;;;;;;;;;;8142431;28;20530;-74
2020/12/13 01:11:09;;;;;;;74.72;23.63;;;;;;;;;;8157795;28;20460;-73
2020/12/13 01:15:14;;;;;;;34.42;15.23;;;;;;;;;;8123019;28;20660;-73
2020/12/13 01:19:18;;;;;;;28.80;12.07;;;;;;;;;;8158139;28;20392;-73
2020/12/13 01:23:21;;;;;;;28.40;12.50;;;;;;;;;;8158955;28;20426;-73
2020/12/13 01:27:24;;;;;;;27.98;11.27;;;;;;;;;;8173463;28;20661;-73
2020/12/13 01:31:29;;;;;;;30.35;12.18;;;;;;;;;;8155934;28;20392;-73
2020/12/13 01:35:33;;;;;;;36.65;15.05;;;;;;;;;;8098804;28;20410;-73
2020/12/13 01:39:36;;;;;;;82.65;37.85;;;;;;;;;;8111556;28;20046;-73
2020/12/13 01:43:39;;;;;;;49.00;22.70;;;;;;;;;;8112197;28;20582;-73
2020/12/13 01:47:42;;;;;;;93.20;36.75;;;;;;;;;;8098574;28;20482;-72
2020/12/13 01:51:53;;;;;;;50.38;23.35;;;;;;;;;;8124716;28;20092;-73
2020/12/13 01:55:58;;;;;;;91.05;38.72;;;;;;;;;;8110159;28;20686;-73
2020/12/13 02:00:10;;;;;;;58.20;27.02;;;;;;;;;;8114044;28;20377;-73
2020/12/13 02:04:20;;;;;;;48.92;21.48;;;;;;;;;;8114864;28;20369;-73
2020/12/13 02:08:23;;;;;;;30.25;13.65;;;;;;;;;;8130747;28;20358;-74
2020/12/13 02:12:28;;;;;;;28.83;12.70;;;;;;;;;;8114751;28;20393;-73
2020/12/13 02:16:31;;;;;;;28.48;11.88;;;;;;;;;;8114076;28;20626;-73
2020/12/13 02:20:34;;;;;;;57.42;23.45;;;;;;;;;;8145266;28;20712;-73
2020/12/13 02:24:36;;;;;;;39.28;17.00;;;;;;;;;;8161696;28;20120;-72
2020/12/13 02:28:41;;;;;;;46.05;19.35;;;;;;;;;;8131860;28;20481;-73
2020/12/13 02:32:44;;;;;;;49.50;24.10;;;;;;;;;;8117999;28;20354;-73
2020/12/13 02:36:47;;;;;;;49.67;22.27;;;;;;;;;;8101613;28;20355;-73
2020/12/13 02:40:50;;;;;;;40.30;16.13;;;;;;;;;;8101994;28;20050;-73
2020/12/13 02:44:53;;;;;;;34.83;13.32;;;;;;;;;;8104888;28;20373;-73
2020/12/13 02:48:56;;;;;;;36.80;14.15;;;;;;;;;;8103594;28;20347;-72
2020/12/13 02:52:59;;;;;;;51.72;17.70;;;;;;;;;;8103244;28;20051;-74
2020/12/13 02:57:06;;;;;;;49.90;20.33;;;;;;;;;;8102486;28;20051;-73
2020/12/13 03:01:10;;;;;;;44.38;21.50;;;;;;;;;;8100249;28;20478;-73
2020/12/13 03:05:13;;;;;;;32.30;10.50;;;;;;;;;;8132867;28;20574;-73
2020/12/13 03:09:17;;;;;;;49.63;22.75;;;;;;;;;;8132471;28;20086;-74
2020/12/13 03:13:19;;;;;;;25.60;12.32;;;;;;;;;;8100330;28;20490;-73
2020/12/13 03:17:22;;;;;;;63.30;26.70;;;;;;;;;;8148318;28;20383;-73
2020/12/13 03:21:27;;;;;;;30.92;12.82;;;;;;;;;;8163606;28;20360;-73
2020/12/13 03:25:30;;;;;;;77.95;28.27;;;;;;;;;;8147056;28;20397;-73
2020/12/13 03:29:33;;;;;;;65.43;24.35;;;;;;;;;;8165029;28;20527;-73
2020/12/13 03:33:36;;;;;;;61.83;21.42;;;;;;;;;;8165802;28;20381;-73
2020/12/13 03:37:39;;;;;;;35.72;14.85;;;;;;;;;;8165076;28;20680;-73
2020/12/13 03:41:42;;;;;;;32.72;13.00;;;;;;;;;;8164179;28;20365;-73
2020/12/13 03:45:45;;;;;;;44.38;16.67;;;;;;;;;;8161547;28;20517;-73
2020/12/13 03:49:48;;;;;;;62.15;28.08;;;;;;;;;;8164157;28;20391;-73
2020/12/13 03:53:51;;;;;;;37.10;14.18;;;;;;;;;;8161431;28;20364;-73
2020/12/13 03:57:54;;;;;;;28.65;13.82;;;;;;;;;;8161019;28;20617;-73
2020/12/13 04:01:57;;;;;;;27.42;12.57;;;;;;;;;;8163532;28;20054;-73
2020/12/13 04:06:01;;;;;;;34.15;15.68;;;;;;;;;;8164318;28;20387;-73
2020/12/13 04:10:04;;;;;;;34.83;15.73;;;;;;;;;;8161659;28;20077;-73
2020/12/13 04:14:08;;;;;;;40.03;19.10;;;;;;;;;;8163744;28;20748;-73
2020/12/13 04:18:12;;;;;;;36.03;17.88;;;;;;;;;;8128468;28;20055;-73
2020/12/13 04:22:15;;;;;;;35.22;17.48;;;;;;;;;;8112451;28;20073;-73
2020/12/13 04:26:18;;;;;;;52.30;26.08;;;;;;;;;;8099493;28;20493;-73
2020/12/13 04:30:21;;;;;;;31.30;12.98;;;;;;;;;;8099376;28;20482;-74
2020/12/13 04:34:24;;;;;;;35.67;15.35;;;;;;;;;;8098076;28;20051;-73
2020/12/13 04:38:27;;;;;;;27.88;12.02;;;;;;;;;;8113878;28;20051;-73
2020/12/13 04:42:34;;;;;;;42.03;17.05;;;;;;;;;;8112516;28;20387;-73
2020/12/13 04:46:45;;;;;;;41.25;15.38;;;;;;;;;;8097911;28;20488;-73
2020/12/13 04:50:50;;;;;;;34.67;14.43;;;;;;;;;;8097308;28;20642;-73
2020/12/13 04:54:55;;;;;;;29.15;14.05;;;;;;;;;;8098137;28;20623;-74
2020/12/13 04:59:06;;;;;;;39.05;18.20;;;;;;;;;;8113328;28;20098;-74
2020/12/13 05:03:15;;;;;;;29.80;13.45;;;;;;;;;;8098824;28;20507;-73
2020/12/13 05:07:21;;;;;;;88.72;34.90;;;;;;;;;;8098597;28;20491;-73
2020/12/13 05:11:24;;;;;;;53.60;20.83;;;;;;;;;;8096300;28;20635;-73
2020/12/13 05:15:27;;;;;;;59.85;22.77;;;;;;;;;;8112428;28;20384;-73
2020/12/13 05:19:30;;;;;;;70.53;24.05;;;;;;;;;;8161464;28;20529;-73
2020/12/13 05:23:34;;;;;;;38.88;16.45;;;;;;;;;;8162144;28;20568;-73
2020/12/13 05:27:41;;;;;;;37.20;18.17;;;;;;;;;;8160794;28;20460;-73
2020/12/13 05:31:44;;;;;;;49.90;25.55;;;;;;;;;;8161258;28;20385;-73
2020/12/13 05:35:48;;;;;;;36.28;18.45;;;;;;;;;;8166639;28;20061;-73
2020/12/13 05:39:53;;;;;;;31.25;14.73;;;;;;;;;;8181619;28;20484;-73
2020/12/13 05:44:12;;;;;;;114.05;48.33;;;;;;;;;;8167608;28;20675;-73
2020/12/13 05:52:34;;;;;;;32.20;17.65;;;;;;;;;;8167802;28;20361;-73
2020/12/13 05:56:38;;;;;;;26.75;13.10;;;;;;;;;;8167730;28;20072;-73
2020/12/13 06:00:41;;;;;;;18.52;9.20;;;;;;;;;;8164721;28;20504;-73
2020/12/13 06:04:53;;;;;;;16.08;8.27;;;;;;;;;;8163880;28;20054;-73
2020/12/13 06:09:11;;;;;;;19.25;10.65;;;;;;;;;;8181790;28;20050;-73
2020/12/13 06:13:18;;;;;;;19.88;10.73;;;;;;;;;;8167106;28;20367;-73
2020/12/13 06:17:21;;;;;;;18.08;8.20;;;;;;;;;;8166622;28;20069;-73
2020/12/13 06:21:25;;;;;;;17.05;8.18;;;;;;;;;;8151908;28;20632;-73
2020/12/13 06:25:28;;;;;;;15.38;7.60;;;;;;;;;;8197801;28;20499;-73
2020/12/13 06:29:36;;;;;;;15.38;7.30;;;;;;;;;;8166578;28;20422;-73
2020/12/13 06:33:41;;;;;;;15.45;6.60;;;;;;;;;;8210341;28;20076;-73
2020/12/13 06:37:44;;;;;;;19.70;10.40;;;;;;;;;;8179389;28;20045;-73
2020/12/13 06:41:50;;;;;;;18.70;9.98;;;;;;;;;;8214885;28;20475;-73
2020/12/13 06:46:15;;;;;;;20.08;8.98;;;;;;;;;;8196417;28;20068;-73
2020/12/13 06:50:24;;;;;;;18.83;8.55;;;;;;;;;;8196578;28;20633;-73
2020/12/13 06:54:31;;;;;;;15.40;8.40;;;;;;;;;;8195674;28;20468;-74
2020/12/13 06:58:43;;;;;;;24.00;11.90;;;;;;;;;;8194838;28;20392;-73
2020/12/13 07:03:00;;;;;;;20.10;9.75;;;;;;;;;;8196976;28;20476;-73
2020/12/13 07:07:09;;;;;;;23.25;11.10;;;;;;;;;;8196109;28;20423;-73
2020/12/13 07:11:13;;;;;;;46.03;23.90;;;;;;;;;;8196180;28;20392;-73
2020/12/13 07:15:22;;;;;;;20.55;12.10;;;;;;;;;;8177815;28;20050;-73
2020/12/13 07:19:30;;;;;;;18.85;9.93;;;;;;;;;;8179858;28;20671;-73
2020/12/13 07:23:35;;;;;;;23.45;8.57;;;;;;;;;;8197103;28;20384;-74
2020/12/13 07:27:41;;;;;;;22.60;9.88;;;;;;;;;;8196932;28;20301;-73
2020/12/13 07:31:46;;;;;;;20.45;9.65;;;;;;;;;;8195688;28;20640;-73
2020/12/13 07:35:49;;;;;;;19.67;8.73;;;;;;;;;;8197594;28;20056;-73
2020/12/13 07:39:52;;;;;;;15.02;8.30;;;;;;;;;;8196666;28;20362;-73
2020/12/13 07:44:03;;;;;;;16.60;9.00;;;;;;;;;;8194076;28;20560;-73
2020/12/13 07:48:06;;;;;;;17.20;8.13;;;;;;;;;;8195056;28;20491;-73
2020/12/13 07:52:14;;;;;;;18.27;7.70;;;;;;;;;;8178570;28;20088;-74
2020/12/13 07:56:29;;;;;;;13.98;7.32;;;;;;;;;;8177621;28;20057;-73
2020/12/13 08:00:33;;;;;;;13.85;6.15;;;;;;;;;;8196383;28;20637;-73
2020/12/13 08:04:43;;;;;;;12.75;6.15;;;;;;;;;;8196606;28;20483;-73
2020/12/13 08:08:46;;;;;;;13.35;6.85;;;;;;;;;;8195301;28;20057;-73
2020/12/13 08:12:52;;;;;;;10.30;5.75;;;;;;;;;;8176706;28;20484;-73
2020/12/13 08:16:57;;;;;;;14.73;8.15;;;;;;;;;;8193891;28;20540;-74
2020/12/13 08:21:01;;;;;;;17.52;10.05;;;;;;;;;;8209450;28;20068;-73
2020/12/13 08:25:06;;;;;;;15.65;7.78;;;;;;;;;;8176558;28;20499;-72
2020/12/13 08:29:09;;;;;;;42.40;24.25;;;;;;;;;;8192236;28;20483;-73
2020/12/13 08:33:13;;;;;;;23.13;11.35;;;;;;;;;;8192492;28;20439;-73
2020/12/13 08:37:24;;;;;;;17.17;9.00;;;;;;;;;;8190715;28;20057;-72
2020/12/13 08:41:28;;;;;;;13.13;6.13;;;;;;;;;;8194723;28;20534;-73
2020/12/13 08:45:33;;;;;;;14.32;7.88;;;;;;;;;;8194780;28;20391;-73
2020/12/13 08:49:49;;;;;;;13.30;6.00;;;;;;;;;;8207561;28;20536;-74
2020/12/13 08:54:01;;;;;;;13.43;6.50;;;;;;;;;;8208824;28;20379;-74
2020/12/13 08:58:05;;;;;;;10.50;6.28;;;;;;;;;;8192141;28;20058;-73
2020/12/13 09:02:08;;;;;;;13.00;5.88;;;;;;;;;;8193687;28;20391;-73
2020/12/13 09:06:12;;;;;;;10.07;5.47;;;;;;;;;;8180825;28;20388;-71
2020/12/13 09:10:15;;;;;;;14.65;6.97;;;;;;;;;;8197414;28;20622;-72
2020/12/13 09:14:32;;;;;;;12.02;6.35;;;;;;;;;;8206810;28;20384;-73
2020/12/13 09:18:36;;;;;;;11.63;6.50;;;;;;;;;;8190784;28;20444;-73
2020/12/13 09:22:39;;;;;;;11.88;5.57;;;;;;;;;;8190434;28;20978;-74
2020/12/13 09:27:03;;;;;;;15.57;7.15;;;;;;;;;;8163047;28;20731;-73
2020/12/13 09:31:08;;;;;;;32.88;14.80;;;;;;;;;;8183720;28;20468;-74
2020/12/13 09:35:12;;;;;;;21.58;10.10;;;;;;;;;;8186644;28;20631;-74
2020/12/13 09:39:17;;;;;;;18.17;8.65;;;;;;;;;;8169760;28;20523;-74
2020/12/13 09:43:20;;;;;;;15.23;9.10;;;;;;;;;;8168829;28;20447;-74
2020/12/13 09:47:24;;;;;;;15.23;7.47;;;;;;;;;;8188287;28;20419;-75
2020/12/13 09:51:29;;;;;;;21.77;12.63;;;;;;;;;;8168739;28;20659;-74
2020/12/13 09:55:32;;;;;;;17.27;8.30;;;;;;;;;;8182791;28;20376;-75
2020/12/13 09:59:35;;;;;;;15.52;7.28;;;;;;;;;;8165617;28;20042;-74
2020/12/13 10:03:42;;;;;;;13.68;7.32;;;;;;;;;;8189654;28;20380;-74
2020/12/13 10:12:06;;;;;;;30.60;13.30;;;;;;;;;;8167510;28;20392;-73
2020/12/13 10:16:11;;;;;;;20.75;8.75;;;;;;;;;;8184651;28;20238;-75
2020/12/13 10:20:14;;;;;;;40.75;18.85;;;;;;;;;;8191394;28;20647;-72
2020/12/13 10:24:17;;;;;;;17.27;9.35;;;;;;;;;;8196694;28;20049;-73
2020/12/13 10:28:21;;;;;;;139.32;51.88;;;;;;;;;;8190408;28;20053;-75
2020/12/13 10:32:24;;;;;;;69.72;36.90;;;;;;;;;;8194823;28;20392;-73
2020/12/13 10:36:35;;;;;;;29.05;14.35;;;;;;;;;;8194008;28;20383;-75
2020/12/13 10:40:39;;;;;;;23.30;12.00;;;;;;;;;;8193403;28;20384;-74
2020/12/13 10:44:42;;;;;;;25.20;12.35;;;;;;;;;;8191827;28;20395;-74
2020/12/13 10:48:46;;;;;;;17.45;9.57;;;;;;;;;;8207730;28;20502;-73
2020/12/13 10:52:51;;;;;;;18.00;10.95;;;;;;;;;;8176317;28;20536;-74
2020/12/13 10:56:55;;;;;;;57.58;32.40;;;;;;;;;;8192355;28;20179;-73
2020/12/13 11:00:58;;;;;;;39.78;25.63;;;;;;;;;;8195535;28;20423;-73
2020/12/13 11:05:03;;;;;;;33.58;16.33;;;;;;;;;;8194386;28;20380;-72
2020/12/13 11:09:06;;;;;;;21.00;10.77;;;;;;;;;;8172910;28;20046;-72
2020/12/13 11:13:09;;;;;;;29.13;21.35;;;;;;;;;;8193503;28;20464;-73
2020/12/13 11:17:12;;;;;;;23.90;15.15;;;;;;;;;;8191510;28;20567;-72
2020/12/13 11:21:16;;;;;;;38.30;13.70;;;;;;;;;;8192979;28;20061;-72
2020/12/13 11:25:19;;;;;;;25.92;11.05;;;;;;;;;;8192950;28;20046;-72
2020/12/13 11:29:25;;;;;;;13.85;7.63;;;;;;;;;;8193974;28;20415;-74
2020/12/13 11:33:29;;;;;;;18.33;9.38;;;;;;;;;;8196226;28;20380;-74
2020/12/13 11:37:32;;;;;;;35.78;15.02;;;;;;;;;;8193810;28;20357;-73
2020/12/13 11:41:36;;;;;;;23.02;12.63;;;;;;;;;;8193499;28;20041;-72
2020/12/13 11:45:40;;;;;;;19.33;8.82;;;;;;;;;;8176993;28;20535;-72
2020/12/13 11:49:43;;;;;;;22.20;9.82;;;;;;;;;;8194161;28;20438;-73
2020/12/13 11:53:46;;;;;;;28.83;12.63;;;;;;;;;;8192679;28;20041;-74
2020/12/13 11:57:49;;;;;;;71.25;24.52;;;;;;;;;;8156661;28;20057;-73
2020/12/13 12:01:53;;;;;;;54.28;21.65;;;;;;;;;;8188746;28;20537;-73
2020/12/13 12:06:08;;;;;;;26.77;13.02;;;;;;;;;;8188072;28;20769;-75
2020/12/13 12:10:12;;;;;;;17.13;9.38;;;;;;;;;;8190687;28;20506;-73
2020/12/13 12:14:15;;;;;;;23.90;10.50;;;;;;;;;;8171352;28;20553;-73
2020/12/13 12:18:18;;;;;;;34.13;15.00;;;;;;;;;;8182427;28;20603;-73
2020/12/13 12:22:21;;;;;;;21.30;10.43;;;;;;;;;;8140793;28;20407;-75
2020/12/13 12:26:33;;;;;;;23.55;10.68;;;;;;;;;;8146106;28;20626;-73
2020/12/13 12:30:36;;;;;;;34.45;15.65;;;;;;;;;;8128262;28;20472;-73
2020/12/13 12:34:40;;;;;;;32.63;15.95;;;;;;;;;;8105917;28;20688;-73
2020/12/13 12:38:43;;;;;;;76.65;30.77;;;;;;;;;;8136699;28;20473;-73
2020/12/13 12:42:47;;;;;;;431.13;148.20;;;;;;;;;;8159073;28;20463;-73
2020/12/13 12:46:52;;;;;;;394.30;105.90;;;;;;;;;;8173798;28;20712;-74
2020/12/13 12:51:05;;;;;;;609.78;191.13;;;;;;;;;;8134633;28;20539;-73
2020/12/13 12:55:09;;;;;;;761.58;196.45;;;;;;;;;;8103198;28;20657;-72
2020/12/13 12:59:19;;;;;;;171.25;42.17;;;;;;;;;;8169143;28;20063;-72
2020/12/13 13:03:22;;;;;;;303.05;63.50;;;;;;;;;;8207863;28;20057;-72
2020/12/13 13:07:28;;;;;;;331.33;69.30;;;;;;;;;;8186450;28;20375;-74
2020/12/13 13:11:37;;;;;;;179.15;44.30;;;;;;;;;;8188673;28;20506;-74
2020/12/13 13:15:51;;;;;;;36.88;16.95;;;;;;;;;;8193573;28;20387;-74
2020/12/13 13:19:55;;;;;;;53.42;21.90;;;;;;;;;;8190410;28;20080;-75
2020/12/13 13:23:59;;;;;;;51.55;19.38;;;;;;;;;;8197537;28;20094;-74
2020/12/13 13:28:02;;;;;;;77.88;24.92;;;;;;;;;;8141305;28;20404;-74
2020/12/13 13:32:08;;;;;;;102.47;31.67;;;;;;;;;;8108084;28;20400;-73
2020/12/13 13:36:14;;;;;;;99.30;29.75;;;;;;;;;;8116956;28;20467;-74
2020/12/13 13:40:18;;;;;;;199.23;50.78;;;;;;;;;;8106775;28;20543;-73
2020/12/13 13:44:25;;;;;;;356.35;93.22;;;;;;;;;;8107656;28;20372;-73
2020/12/13 13:48:43;;;;;;;323.63;75.45;;;;;;;;;;8104694;28;20377;-74
2020/12/13 13:52:48;;;;;;;389.23;96.38;;;;;;;;;;8096428;28;20381;-73
2020/12/13 13:57:02;;;;;;;215.90;58.08;;;;;;;;;;8118622;28;20912;-73
2020/12/13 14:01:05;;;;;;;123.38;36.42;;;;;;;;;;8171890;28;20626;-73
2020/12/13 14:05:09;;;;;;;139.10;33.45;;;;;;;;;;8226814;28;20657;-72
2020/12/13 14:09:13;;;;;;;96.20;29.95;;;;;;;;;;8229692;28;20387;-74
2020/12/13 14:13:17;;;;;;;88.70;27.23;;;;;;;;;;8162090;28;20389;-73
2020/12/13 14:17:20;;;;;;;275.58;72.03;;;;;;;;;;8157525;28;20464;-72
2020/12/13 14:21:24;;;;;;;289.85;93.28;;;;;;;;;;8161506;28;20585;-76
2020/12/13 14:25:28;;;;;;;135.82;45.83;;;;;;;;;;8159562;28;20517;-72
2020/12/13 14:35:48;;;;;;;155.75;44.38;;;;;;;;;;8421351;27;21387;-73
2020/12/13 14:47:25;;;;;;;32.10;14.02;;;;;;;;;;8291022;28;20370;-72
2020/12/13 14:51:32;;;;;;;99.82;33.97;;;;;;;;;;8255217;28;20048;-74
2020/12/13 14:55:38;;;;;;;102.53;32.13;;;;;;;;;;8265690;28;20665;-74
2020/12/13 14:59:46;;;;;;;32.10;14.05;;;;;;;;;;8285352;28;20040;-74
2020/12/13 15:03:57;;;;;;;124.47;44.22;;;;;;;;;;8229296;28;20402;-72
2020/12/13 15:08:01;;;;;;;55.58;21.67;;;;;;;;;;8285110;28;20248;-73
2020/12/13 15:12:05;;;;;;;78.45;29.42;;;;;;;;;;8302814;28;20494;-73
2020/12/13 15:16:16;;;;;;;50.05;20.85;;;;;;;;;;8302381;28;20425;-73
2020/12/13 15:20:20;;;;;;;46.95;19.40;;;;;;;;;;8301221;28;20478;-73
2020/12/13 15:24:24;;;;;;;49.97;20.83;;;;;;;;;;8302272;28;20451;-73
2020/12/13 15:28:28;;;;;;;82.88;30.75;;;;;;;;;;8301862;28;20470;-72
2020/12/13 15:32:33;;;;;;;44.85;19.27;;;;;;;;;;8300055;28;20378;-72
2020/12/13 15:36:36;;;;;;;1239.30;405.17;;;;;;;;;;8300744;28;20048;-72
2020/12/13 15:40:40;;;;;;;179.25;52.45;;;;;;;;;;8282012;28;20425;-73
2020/12/13 15:44:45;;;;;;;920.45;252.15;;;;;;;;;;8265862;28;20530;-73
2020/12/13 15:48:48;;;;;;;1999.90;645.65;;;;;;;;;;8279289;28;20397;-74
2020/12/13 15:52:53;;;;;;;1297.90;412.90;;;;;;;;;;8279745;28;20415;-74
2020/12/13 15:56:59;;;;;;;1999.90;638.88;;;;;;;;;;8277672;28;20492;-74
2020/12/13 16:01:05;;;;;;;1060.80;293.23;;;;;;;;;;8279021;28;20542;-74
2020/12/13 16:05:17;;;;;;;1137.68;297.58;;;;;;;;;;8278273;28;20658;-74
2020/12/13 16:09:20;;;;;;;376.50;83.85;;;;;;;;;;8279740;28;20509;-74
2020/12/13 16:13:23;;;;;;;476.85;99.65;;;;;;;;;;8281376;28;20418;-74
2020/12/13 16:17:28;;;;;;;943.10;232.20;;;;;;;;;;8277643;28;20502;-74
2020/12/13 16:21:32;;;;;;;748.38;186.55;;;;;;;;;;8279129;28;20071;-74
2020/12/13 16:25:35;;;;;;;320.70;73.72;;;;;;;;;;8279337;28;20481;-73
2020/12/13 16:29:39;;;;;;;683.65;162.07;;;;;;;;;;8279195;28;20165;-74
2020/12/13 16:33:42;;;;;;;393.23;86.55;;;;;;;;;;8242924;28;20352;-75
2020/12/13 16:38:06;;;;;;;380.48;84.43;;;;;;;;;;8278501;28;20406;-73
2020/12/13 16:42:14;;;;;;;762.63;192.27;;;;;;;;;;8281242;28;20407;-73
2020/12/13 16:46:22;;;;;;;937.67;255.50;;;;;;;;;;8260525;28;20414;-73
2020/12/13 16:50:49;;;;;;;811.03;227.60;;;;;;;;;;8278502;28;20933;-73
2020/12/13 16:54:52;;;;;;;930.17;286.35;;;;;;;;;;8277536;28;20576;-73
2020/12/13 16:58:55;;;;;;;401.02;114.30;;;;;;;;;;8258093;28;20375;-73
2020/12/13 17:02:58;;;;;;;439.50;108.68;;;;;;;;;;8277492;28;20379;-73
2020/12/13 17:07:02;;;;;;;693.25;200.27;;;;;;;;;;8276631;28;20463;-73
2020/12/13 17:11:05;;;;;;;638.80;203.13;;;;;;;;;;8277865;28;20615;-74
2020/12/13 17:15:10;;;;;;;475.38;142.18;;;;;;;;;;8277382;28;20483;-72
2020/12/13 17:19:14;;;;;;;115.78;38.55;;;;;;;;;;8277646;28;20486;-73
2020/12/13 17:23:20;;;;;;;196.75;52.63;;;;;;;;;;8277423;28;20359;-74
2020/12/13 17:27:23;;;;;;;220.40;57.13;;;;;;;;;;8279369;28;20371;-73
2020/12/13 17:31:30;;;;;;;241.93;61.05;;;;;;;;;;8276895;28;20390;-73
2020/12/13 17:35:33;;;;;;;141.35;39.17;;;;;;;;;;8275902;28;20556;-73
2020/12/13 17:39:36;;;;;;;311.25;73.10;;;;;;;;;;8277096;28;20493;-73
2020/12/13 17:43:43;;;;;;;479.95;121.15;;;;;;;;;;8276169;28;20456;-73
2020/12/13 17:48:07;;;;;;;436.40;108.40;;;;;;;;;;8276547;28;20091;-73
2020/12/13 17:52:19;;;;;;;88.25;27.77;;;;;;;;;;8259117;28;20390;-73
2020/12/13 17:56:26;;;;;;;81.22;26.08;;;;;;;;;;8275499;28;20378;-72
2020/12/13 18:00:32;;;;;;;121.22;29.58;;;;;;;;;;8276661;28;20383;-73
2020/12/13 18:04:36;;;;;;;105.68;32.38;;;;;;;;;;8274640;28;20410;-73
2020/12/13 18:08:40;;;;;;;67.25;26.48;;;;;;;;;;8239451;28;20700;-73
2020/12/13 18:12:44;;;;;;;186.30;54.40;;;;;;;;;;8274849;28;20049;-73
2020/12/13 18:16:47;;;;;;;233.75;75.18;;;;;;;;;;8275279;28;20365;-74
2020/12/13 18:20:53;;;;;;;252.27;73.70;;;;;;;;;;8274802;28;20475;-74
2020/12/13 18:24:57;;;;;;;81.22;33.78;;;;;;;;;;8275060;28;20451;-74
2020/12/13 18:29:00;;;;;;;118.85;40.05;;;;;;;;;;8273510;28;20639;-74
2020/12/13 18:33:05;;;;;;;88.57;28.98;;;;;;;;;;8275257;28;20626;-74
2020/12/13 18:37:08;;;;;;;240.35;88.95;;;;;;;;;;8273608;28;20048;-73
2020/12/13 18:41:16;;;;;;;45.45;19.13;;;;;;;;;;8273706;28;20433;-73
2020/12/13 18:45:27;;;;;;;91.15;34.97;;;;;;;;;;8273525;28;20413;-74
2020/12/13 18:49:29;;;;;;;534.08;169.48;;;;;;;;;;8274662;28;20360;-73
2020/12/13 18:53:39;;;;;;;111.40;38.53;;;;;;;;;;8274599;28;20482;-73
2020/12/13 18:57:44;;;;;;;118.22;46.28;;;;;;;;;;8274058;28;20497;-73
2020/12/13 19:01:57;;;;;;;41.00;20.23;;;;;;;;;;8272605;28;20499;-72
2020/12/13 19:06:00;;;;;;;35.47;15.57;;;;;;;;;;8273050;28;20363;-73
2020/12/13 19:10:04;;;;;;;44.50;17.83;;;;;;;;;;8272680;28;20427;-72
2020/12/13 19:14:06;;;;;;;154.70;42.50;;;;;;;;;;8274226;28;20052;-74
2020/12/13 19:18:10;;;;;;;143.90;36.33;;;;;;;;;;8256500;28;20471;-73
2020/12/13 19:22:12;;;;;;;138.38;34.33;;;;;;;;;;8279061;28;20470;-73
2020/12/13 19:26:15;;;;;;;72.18;23.15;;;;;;;;;;8278773;28;20569;-75
2020/12/13 19:30:19;;;;;;;69.28;20.55;;;;;;;;;;8279614;28;20379;-73
2020/12/13 19:34:28;;;;;;;65.72;22.58;;;;;;;;;;8280026;28;20375;-73
2020/12/13 19:38:31;;;;;;;125.45;29.63;;;;;;;;;;8279724;28;20475;-74
2020/12/13 19:42:35;;;;;;;73.88;24.05;;;;;;;;;;8280398;28;20375;-73
2020/12/13 19:46:38;;;;;;;238.25;52.28;;;;;;;;;;8260146;28;20615;-73
2020/12/13 19:50:44;;;;;;;68.03;22.70;;;;;;;;;;8279822;28;20379;-73
2020/12/13 19:54:47;;;;;;;56.30;23.15;;;;;;;;;;8278088;28;20068;-73
2020/12/13 19:58:50;;;;;;;646.83;216.30;;;;;;;;;;8279312;28;20068;-73
2020/12/13 20:02:54;;;;;;;119.18;39.47;;;;;;;;;;8243144;28;20521;-74
2020/12/13 20:06:57;;;;;;;230.38;50.72;;;;;;;;;;8279257;28;20057;-73
2020/12/13 20:11:00;;;;;;;90.63;29.52;;;;;;;;;;8278748;28;20067;-74
2020/12/13 21:17:27;;;;;;;44.95;17.25;;;;;;;;;;8275905;28;20406;-73
2020/12/13 21:21:33;;;;;;;45.08;19.08;;;;;;;;;;8276945;28;20040;-73
2020/12/13 21:38:58;;;;;;;46.20;17.15;;;;;;;;;;8241949;28;20349;-73
2020/12/13 21:47:36;;;;;;;44.78;16.58;;;;;;;;;;8211199;28;20503;-74
2020/12/13 21:51:39;;;;;;;272.33;62.00;;;;;;;;;;8275749;28;20545;-74
2020/12/13 21:56:04;;;;;;;76.97;24.98;;;;;;;;;;8274896;28;20502;-74
2020/12/13 22:00:31;;;;;;;41.42;16.17;;;;;;;;;;8275173;28;20359;-74
2020/12/13 22:05:21;;;;;;;72.75;22.35;;;;;;;;;;8275946;28;20565;-74
2020/12/13 22:26:42;;;;;;;308.33;58.38;;;;;;;;;;8275433;28;20360;-74
2020/12/13 22:30:45;;;;;;;101.82;27.55;;;;;;;;;;8275704;28;20493;-74
2020/12/13 22:34:49;;;;;;;101.45;27.20;;;;;;;;;;8275275;28;20466;-73
2020/12/13 22:38:52;;;;;;;72.93;23.23;;;;;;;;;;8274429;28;20370;-73
2020/12/13 22:42:55;;;;;;;629.45;131.20;;;;;;;;;;8273285;28;20387;-73
2020/12/13 22:46:59;;;;;;;75.50;25.98;;;;;;;;;;8274354;28;20379;-74
2020/12/13 22:51:06;;;;;;;551.17;108.72;;;;;;;;;;8274607;28;20475;-73
2020/12/13 22:55:11;;;;;;;356.63;72.18;;;;;;;;;;8278498;28;20053;-74
2020/12/13 22:59:16;;;;;;;53.53;20.13;;;;;;;;;;8280992;28;20501;-73
2020/12/13 23:03:19;;;;;;;42.50;15.85;;;;;;;;;;8280612;28;20110;-74
2020/12/13 23:07:22;;;;;;;44.03;17.58;;;;;;;;;;8281272;28;20375;-73
2020/12/13 23:11:24;;;;;;;120.25;31.45;;;;;;;;;;8280688;28;20658;-73
2020/12/13 23:15:28;;;;;;;101.32;31.65;;;;;;;;;;8280237;28;20479;-73
2020/12/13 23:19:35;;;;;;;75.20;25.60;;;;;;;;;;8262707;28;20487;-74
2020/12/13 23:23:38;;;;;;;54.17;23.25;;;;;;;;;;8279066;28;20056;-74
2020/12/13 23:27:48;;;;;;;58.22;22.83;;;;;;;;;;8280841;28;20362;-74
2020/12/13 23:31:51;;;;;;;65.38;24.67;;;;;;;;;;8280475;28;20459;-74
2020/12/13 23:35:54;;;;;;;74.05;26.95;;;;;;;;;;8278393;28;20528;-74
2020/12/13 23:39:58;;;;;;;60.10;21.15;;;;;;;;;;8279302;28;20462;-74
2020/12/13 23:44:01;;;;;;;59.47;22.10;;;;;;;;;;8278323;28;20509;-74
2020/12/13 23:48:04;;;;;;;70.72;24.75;;;;;;;;;;8279467;28;20489;-74
2020/12/13 23:52:10;;;;;;;66.20;22.45;;;;;;;;;;8279197;28;20413;-73
2020/12/13 23:56:13;;;;;;;62.88;22.60;;;;;;;;;;8277823;28;20668;-73
